Check out our new PWSWeather beta!
PWSweather.com
Personal Weather Stations
Station Observations
KILASHKU1
Ashkum, IL

Ashkum, IL

Lat: 40.8779862, Lon: -87.846552

Elevation: 626

Station Type: Davis Vantage Pro 2

Latest ConditionsUpdated 5:00:00 AM CST Wednesday, Feb 26, 2020
Currently Today's Max Today's Min Today's Average
Temperature 31.7°F-0.2°C 32.6°F0.3°C 31.7°F-0.2°C 32.2°F0.1°C
Dew Point 30.4°F-0.9°C 32.1°F0.1°C 30.4°F-0.9°C 31.3°F-0.4°C
Winds 2.0 mph NW3.2 kmh NW 2.0 mph -3.2 kmh - - 1.2 mph 1.9 kmh
Wind Gusts 5.0 mph8.0 kmh 8.0 mph12.9 kmh - -
Humidity 95% 98% 95% 96%
Pressure 30.05 in1017.6 mb 30.05 in1017.6 mb 30.02 in1016.6 mb -
Hour Temp Dew Point Humidity Winds Wind Gusts Pressure Precip Precip Rate Daily Precip Total
05:00 AM 31.7°F-0.2°C 30.4°F-0.9°C 95% 2.0 mph NW3.2 kmh NW 5.0 mph8.0 kmh 30.05 in1017.6 mb 0.00 in0.0 mm 0.00 in0.0 mm 0.00 in0.0 mm
04:58 AM 31.7°F-0.2°C 30.4°F-0.9°C 95% 2.0 mph NW3.2 kmh NW 5.0 mph8.0 kmh 30.05 in1017.6 mb 0.00 in0.0 mm 0.00 in0.0 mm 0.00 in0.0 mm
04:56 AM 31.7°F-0.2°C 30.4°F-0.9°C 95% 1.0 mph NNW1.6 kmh NNW 5.0 mph8.0 kmh 30.05 in1017.6 mb 0.00 in0.0 mm 0.00 in0.0 mm 0.00 in0.0 mm
04:54 AM 31.7°F-0.2°C 30.4°F-0.9°C 95% 2.0 mph NNW3.2 kmh NNW 7.0 mph11.3 kmh 30.05 in1017.6 mb 0.00 in0.0 mm 0.00 in0.0 mm 0.00 in0.0 mm
04:52 AM 31.7°F-0.2°C 30.4°F-0.9°C 95% 1.0 mph N1.6 kmh N 7.0 mph11.3 kmh 30.05 in1017.6 mb 0.00 in0.0 mm 0.00 in0.0 mm 0.00 in0.0 mm
04:50 AM 31.7°F-0.2°C 30.4°F-0.9°C 95% 1.0 mph N1.6 kmh N 7.0 mph11.3 kmh 30.05 in1017.6 mb 0.00 in0.0 mm 0.00 in0.0 mm 0.00 in0.0 mm
04:48 AM 31.7°F-0.2°C 30.4°F-0.9°C 95% 1.0 mph N1.6 kmh N 7.0 mph11.3 kmh 30.05 in1017.6 mb 0.00 in0.0 mm 0.00 in0.0 mm 0.00 in0.0 mm
04:46 AM 31.7°F-0.2°C 30.4°F-0.9°C 95% 1.0 mph N1.6 kmh N 7.0 mph11.3 kmh 30.05 in1017.6 mb 0.00 in0.0 mm 0.00 in0.0 mm 0.00 in0.0 mm
04:44 AM 31.7°F-0.2°C 30.4°F-0.9°C 95% 1.0 mph N1.6 kmh N 5.0 mph8.0 kmh 30.05 in1017.6 mb 0.00 in0.0 mm 0.00 in0.0 mm 0.00 in0.0 mm
04:42 AM 31.7°F-0.2°C 30.4°F-0.9°C 95% 1.0 mph N1.6 kmh N 5.0 mph8.0 kmh 30.04 in1017.3 mb 0.00 in0.0 mm 0.00 in0.0 mm 0.00 in0.0 mm
04:40 AM 31.7°F-0.2°C 30.4°F-0.9°C 95% 1.0 mph N1.6 kmh N 5.0 mph8.0 kmh 30.04 in1017.3 mb 0.00 in0.0 mm 0.00 in0.0 mm 0.00 in0.0 mm
04:38 AM 31.7°F-0.2°C 30.4°F-0.9°C 95% 1.0 mph N1.6 kmh N 7.0 mph11.3 kmh 30.04 in1017.3 mb 0.00 in0.0 mm 0.00 in0.0 mm 0.00 in0.0 mm
04:36 AM 31.7°F-0.2°C 30.4°F-0.9°C 95% 1.0 mph NNW1.6 kmh NNW 7.0 mph11.3 kmh 30.04 in1017.3 mb 0.00 in0.0 mm 0.00 in0.0 mm 0.00 in0.0 mm
04:34 AM 31.7°F-0.2°C 30.4°F-0.9°C 95% 1.0 mph N1.6 kmh N 7.0 mph11.3 kmh 30.04 in1017.3 mb 0.00 in0.0 mm 0.00 in0.0 mm 0.00 in0.0 mm
04:32 AM 31.7°F-0.2°C 30.4°F-0.9°C 95% 2.0 mph N3.2 kmh N 7.0 mph11.3 kmh 30.04 in1017.3 mb 0.00 in0.0 mm 0.00 in0.0 mm 0.00 in0.0 mm
04:30 AM 31.7°F-0.2°C 30.4°F-0.9°C 95% 2.0 mph NNE3.2 kmh NNE 7.0 mph11.3 kmh 30.04 in1017.3 mb 0.00 in0.0 mm 0.00 in0.0 mm 0.00 in0.0 mm
04:28 AM 31.7°F-0.2°C 30.4°F-0.9°C 95% 1.0 mph NE1.6 kmh NE 4.0 mph6.4 kmh 30.04 in1017.3 mb 0.00 in0.0 mm 0.00 in0.0 mm 0.00 in0.0 mm
04:26 AM 31.7°F-0.2°C 30.4°F-0.9°C 95% 1.0 mph NNE1.6 kmh NNE 4.0 mph6.4 kmh 30.04 in1017.3 mb 0.00 in0.0 mm 0.00 in0.0 mm 0.00 in0.0 mm
04:24 AM 31.7°F-0.2°C 30.4°F-0.9°C 95% 1.0 mph NNE1.6 kmh NNE 4.0 mph6.4 kmh 30.04 in1017.3 mb 0.00 in0.0 mm 0.00 in0.0 mm 0.00 in0.0 mm
04:22 AM 31.7°F-0.2°C 30.4°F-0.9°C 95% 1.0 mph NNE1.6 kmh NNE 4.0 mph6.4 kmh 30.04 in1017.3 mb 0.00 in0.0 mm 0.00 in0.0 mm 0.00 in0.0 mm
04:20 AM 31.7°F-0.2°C 30.4°F-0.9°C 95% 1.0 mph NNE1.6 kmh NNE 4.0 mph6.4 kmh 30.04 in1017.3 mb 0.00 in0.0 mm 0.00 in0.0 mm 0.00 in0.0 mm
04:18 AM 31.7°F-0.2°C 30.4°F-0.9°C 95% 1.0 mph NNE1.6 kmh NNE 3.0 mph4.8 kmh 30.04 in1017.3 mb 0.00 in0.0 mm 0.00 in0.0 mm 0.00 in0.0 mm
04:16 AM 31.7°F-0.2°C 30.4°F-0.9°C 95% 1.0 mph NNE1.6 kmh NNE 3.0 mph4.8 kmh 30.04 in1017.3 mb 0.00 in0.0 mm 0.00 in0.0 mm 0.00 in0.0 mm
04:14 AM 31.8°F-0.1°C 30.5°F-0.8°C 95% 1.0 mph NNE1.6 kmh NNE 3.0 mph4.8 kmh 30.03 in1016.9 mb 0.00 in0.0 mm 0.00 in0.0 mm 0.00 in0.0 mm
04:12 AM 31.8°F-0.1°C 30.8°F-0.7°C 96% 1.0 mph NNE1.6 kmh NNE 4.0 mph6.4 kmh 30.03 in1016.9 mb 0.00 in0.0 mm 0.00 in0.0 mm 0.00 in0.0 mm
04:10 AM 31.8°F-0.1°C 30.8°F-0.7°C 96% 1.0 mph NNE1.6 kmh NNE 4.0 mph6.4 kmh 30.03 in1016.9 mb 0.00 in0.0 mm 0.00 in0.0 mm 0.00 in0.0 mm
04:08 AM 31.8°F-0.1°C 30.8°F-0.7°C 96% 1.0 mph NNE1.6 kmh NNE 6.0 mph9.7 kmh 30.03 in1016.9 mb 0.00 in0.0 mm 0.00 in0.0 mm 0.00 in0.0 mm
04:06 AM 31.8°F-0.1°C 30.8°F-0.7°C 96% 1.0 mph N1.6 kmh N 6.0 mph9.7 kmh 30.03 in1016.9 mb 0.00 in0.0 mm 0.00 in0.0 mm 0.00 in0.0 mm
04:04 AM 31.8°F-0.1°C 30.8°F-0.7°C 96% 1.0 mph N1.6 kmh N 6.0 mph9.7 kmh 30.03 in1016.9 mb 0.00 in0.0 mm 0.00 in0.0 mm 0.00 in0.0 mm
04:02 AM 31.8°F-0.1°C 30.8°F-0.7°C 96% 1.0 mph N1.6 kmh N 6.0 mph9.7 kmh 30.03 in1016.9 mb 0.00 in0.0 mm 0.00 in0.0 mm 0.00 in0.0 mm
04:00 AM 31.8°F-0.1°C 30.8°F-0.7°C 96% 1.0 mph N1.6 kmh N 6.0 mph9.7 kmh 30.03 in1016.9 mb 0.00 in0.0 mm 0.00 in0.0 mm 0.00 in0.0 mm
03:58 AM 31.8°F-0.1°C 30.8°F-0.7°C 96% 1.0 mph N1.6 kmh N 6.0 mph9.7 kmh 30.02 in1016.6 mb 0.00 in0.0 mm 0.00 in0.0 mm 0.00 in0.0 mm
03:56 AM 31.8°F-0.1°C 30.8°F-0.7°C 96% 2.0 mph N3.2 kmh N 6.0 mph9.7 kmh 30.03 in1016.9 mb 0.00 in0.0 mm 0.00 in0.0 mm 0.00 in0.0 mm
03:54 AM 31.8°F-0.1°C 30.8°F-0.7°C 96% 1.0 mph NNE1.6 kmh NNE 6.0 mph9.7 kmh 30.02 in1016.6 mb 0.00 in0.0 mm 0.00 in0.0 mm 0.00 in0.0 mm
03:52 AM 31.9°F-0.1°C 30.9°F-0.6°C 96% 2.0 mph NNE3.2 kmh NNE 5.0 mph8.0 kmh 30.02 in1016.6 mb 0.00 in0.0 mm 0.00 in0.0 mm 0.00 in0.0 mm
03:50 AM 31.9°F-0.1°C 30.9°F-0.6°C 96% 1.0 mph NE1.6 kmh NE 5.0 mph8.0 kmh 30.02 in1016.6 mb 0.00 in0.0 mm 0.00 in0.0 mm 0.00 in0.0 mm
03:48 AM 31.9°F-0.1°C 30.9°F-0.6°C 96% 1.0 mph NE1.6 kmh NE 5.0 mph8.0 kmh 30.02 in1016.6 mb 0.00 in0.0 mm 0.00 in0.0 mm 0.00 in0.0 mm
03:46 AM 31.9°F-0.1°C 30.9°F-0.6°C 96% 1.0 mph E1.6 kmh E 3.0 mph4.8 kmh 30.03 in1016.9 mb 0.00 in0.0 mm 0.00 in0.0 mm 0.00 in0.0 mm
03:44 AM 31.9°F-0.1°C 30.9°F-0.6°C 96% 1.0 mph E1.6 kmh E 3.0 mph4.8 kmh 30.03 in1016.9 mb 0.00 in0.0 mm 0.00 in0.0 mm 0.00 in0.0 mm
03:42 AM 31.9°F-0.1°C 30.9°F-0.6°C 96% 1.0 mph E1.6 kmh E 4.0 mph6.4 kmh 30.03 in1016.9 mb 0.00 in0.0 mm 0.00 in0.0 mm 0.00 in0.0 mm
03:40 AM 31.9°F-0.1°C 30.9°F-0.6°C 96% 1.0 mph E1.6 kmh E 4.0 mph6.4 kmh 30.03 in1016.9 mb 0.00 in0.0 mm 0.00 in0.0 mm 0.00 in0.0 mm
03:38 AM 31.9°F-0.1°C 30.9°F-0.6°C 96% 1.0 mph ENE1.6 kmh ENE 4.0 mph6.4 kmh 30.03 in1016.9 mb 0.00 in0.0 mm 0.00 in0.0 mm 0.00 in0.0 mm
03:36 AM 32.0°F0.0°C 31.0°F-0.6°C 96% Calm Calm 4.0 mph6.4 kmh 30.03 in1016.9 mb 0.00 in0.0 mm 0.00 in0.0 mm 0.00 in0.0 mm
03:34 AM 32.0°F0.0°C 31.0°F-0.6°C 96% Calm Calm 4.0 mph6.4 kmh 30.03 in1016.9 mb 0.00 in0.0 mm 0.00 in0.0 mm 0.00 in0.0 mm
03:32 AM 32.0°F0.0°C 31.0°F-0.6°C 96% 1.0 mph NE1.6 kmh NE 3.0 mph4.8 kmh 30.04 in1017.3 mb 0.00 in0.0 mm 0.00 in0.0 mm 0.00 in0.0 mm
03:30 AM 32.0°F0.0°C 31.0°F-0.6°C 96% 1.0 mph NE1.6 kmh NE 3.0 mph4.8 kmh 30.04 in1017.3 mb 0.00 in0.0 mm 0.00 in0.0 mm 0.00 in0.0 mm
03:28 AM 32.0°F0.0°C 31.0°F-0.6°C 96% 1.0 mph NE1.6 kmh NE 3.0 mph4.8 kmh 30.04 in1017.3 mb 0.00 in0.0 mm 0.00 in0.0 mm 0.00 in0.0 mm
03:26 AM 32.0°F0.0°C 31.0°F-0.6°C 96% 1.0 mph NE1.6 kmh NE 4.0 mph6.4 kmh 30.04 in1017.3 mb 0.00 in0.0 mm 0.00 in0.0 mm 0.00 in0.0 mm
03:24 AM 32.1°F0.1°C 31.1°F-0.5°C 96% 1.0 mph NE1.6 kmh NE 4.0 mph6.4 kmh 30.03 in1016.9 mb 0.00 in0.0 mm 0.00 in0.0 mm 0.00 in0.0 mm
03:22 AM 32.1°F0.1°C 31.1°F-0.5°C 96% 1.0 mph NE1.6 kmh NE 4.0 mph6.4 kmh 30.04 in1017.3 mb 0.00 in0.0 mm 0.00 in0.0 mm 0.00 in0.0 mm
03:20 AM 32.1°F0.1°C 31.1°F-0.5°C 96% 1.0 mph NE1.6 kmh NE 4.0 mph6.4 kmh 30.04 in1017.3 mb 0.00 in0.0 mm 0.00 in0.0 mm 0.00 in0.0 mm
03:18 AM 32.1°F0.1°C 31.1°F-0.5°C 96% 1.0 mph NE1.6 kmh NE 4.0 mph6.4 kmh 30.03 in1016.9 mb 0.00 in0.0 mm 0.00 in0.0 mm 0.00 in0.0 mm
03:16 AM 32.1°F0.1°C 31.1°F-0.5°C 96% 1.0 mph NE1.6 kmh NE 4.0 mph6.4 kmh 30.03 in1016.9 mb 0.00 in0.0 mm 0.00 in0.0 mm 0.00 in0.0 mm
03:14 AM 32.1°F0.1°C 31.1°F-0.5°C 96% 1.0 mph NE1.6 kmh NE 4.0 mph6.4 kmh 30.03 in1016.9 mb 0.00 in0.0 mm 0.00 in0.0 mm 0.00 in0.0 mm
03:12 AM 32.1°F0.1°C 31.1°F-0.5°C 96% 1.0 mph NE1.6 kmh NE 4.0 mph6.4 kmh 30.03 in1016.9 mb 0.00 in0.0 mm 0.00 in0.0 mm 0.00 in0.0 mm
03:10 AM 32.1°F0.1°C 31.1°F-0.5°C 96% 1.0 mph NE1.6 kmh NE 4.0 mph6.4 kmh 30.03 in1016.9 mb 0.00 in0.0 mm 0.00 in0.0 mm 0.00 in0.0 mm
03:08 AM 32.1°F0.1°C 31.1°F-0.5°C 96% 1.0 mph NE1.6 kmh NE 4.0 mph6.4 kmh 30.03 in1016.9 mb 0.00 in0.0 mm 0.00 in0.0 mm 0.00 in0.0 mm
03:06 AM 32.2°F0.1°C 31.2°F-0.4°C 96% 1.0 mph E1.6 kmh E 4.0 mph6.4 kmh 30.03 in1016.9 mb 0.00 in0.0 mm 0.00 in0.0 mm 0.00 in0.0 mm
03:04 AM 32.2°F0.1°C 31.2°F-0.4°C 96% 1.0 mph E1.6 kmh E 4.0 mph6.4 kmh 30.03 in1016.9 mb 0.00 in0.0 mm 0.00 in0.0 mm 0.00 in0.0 mm
03:02 AM 32.2°F0.1°C 31.2°F-0.4°C 96% 1.0 mph E1.6 kmh E 5.0 mph8.0 kmh 30.03 in1016.9 mb 0.00 in0.0 mm 0.00 in0.0 mm 0.00 in0.0 mm
03:00 AM 32.2°F0.1°C 31.2°F-0.4°C 96% 2.0 mph E3.2 kmh E 5.0 mph8.0 kmh 30.02 in1016.6 mb 0.00 in0.0 mm 0.00 in0.0 mm 0.00 in0.0 mm
02:58 AM 32.2°F0.1°C 31.2°F-0.4°C 96% 2.0 mph E3.2 kmh E 5.0 mph8.0 kmh 30.03 in1016.9 mb 0.00 in0.0 mm 0.00 in0.0 mm 0.00 in0.0 mm
02:56 AM 32.2°F0.1°C 31.2°F-0.4°C 96% 1.0 mph ENE1.6 kmh ENE 5.0 mph8.0 kmh 30.03 in1016.9 mb 0.00 in0.0 mm 0.00 in0.0 mm 0.00 in0.0 mm
02:54 AM 32.2°F0.1°C 31.2°F-0.4°C 96% 1.0 mph ENE1.6 kmh ENE 5.0 mph8.0 kmh 30.03 in1016.9 mb 0.00 in0.0 mm 0.00 in0.0 mm 0.00 in0.0 mm
02:52 AM 32.2°F0.1°C 31.2°F-0.4°C 96% 1.0 mph NE1.6 kmh NE 5.0 mph8.0 kmh 30.03 in1016.9 mb 0.00 in0.0 mm 0.00 in0.0 mm 0.00 in0.0 mm
02:50 AM 32.2°F0.1°C 31.2°F-0.4°C 96% 1.0 mph NE1.6 kmh NE 4.0 mph6.4 kmh 30.03 in1016.9 mb 0.00 in0.0 mm 0.00 in0.0 mm 0.00 in0.0 mm
02:48 AM 32.2°F0.1°C 31.2°F-0.4°C 96% 1.0 mph NE1.6 kmh NE 4.0 mph6.4 kmh 30.03 in1016.9 mb 0.00 in0.0 mm 0.00 in0.0 mm 0.00 in0.0 mm
02:46 AM 32.3°F0.2°C 31.3°F-0.4°C 96% 1.0 mph NE1.6 kmh NE 4.0 mph6.4 kmh 30.03 in1016.9 mb 0.00 in0.0 mm 0.00 in0.0 mm 0.00 in0.0 mm
02:44 AM 32.3°F0.2°C 31.3°F-0.4°C 96% 1.0 mph NE1.6 kmh NE 4.0 mph6.4 kmh 30.03 in1016.9 mb 0.00 in0.0 mm 0.00 in0.0 mm 0.00 in0.0 mm
02:42 AM 32.3°F0.2°C 31.3°F-0.4°C 96% 1.0 mph NE1.6 kmh NE 4.0 mph6.4 kmh 30.03 in1016.9 mb 0.00 in0.0 mm 0.00 in0.0 mm 0.00 in0.0 mm
02:40 AM 32.3°F0.2°C 31.3°F-0.4°C 96% 1.0 mph NE1.6 kmh NE 4.0 mph6.4 kmh 30.03 in1016.9 mb 0.00 in0.0 mm 0.00 in0.0 mm 0.00 in0.0 mm
02:38 AM 32.3°F0.2°C 31.3°F-0.4°C 96% 1.0 mph NE1.6 kmh NE 4.0 mph6.4 kmh 30.03 in1016.9 mb 0.00 in0.0 mm 0.00 in0.0 mm 0.00 in0.0 mm
02:36 AM 32.3°F0.2°C 31.3°F-0.4°C 96% 1.0 mph NE1.6 kmh NE 4.0 mph6.4 kmh 30.03 in1016.9 mb 0.00 in0.0 mm 0.00 in0.0 mm 0.00 in0.0 mm
02:34 AM 32.3°F0.2°C 31.3°F-0.4°C 96% 2.0 mph NE3.2 kmh NE 8.0 mph12.9 kmh 30.03 in1016.9 mb 0.00 in0.0 mm 0.00 in0.0 mm 0.00 in0.0 mm
02:32 AM 32.3°F0.2°C 31.3°F-0.4°C 96% 2.0 mph NE3.2 kmh NE 8.0 mph12.9 kmh 30.03 in1016.9 mb 0.00 in0.0 mm 0.00 in0.0 mm 0.00 in0.0 mm
02:30 AM 32.3°F0.2°C 31.3°F-0.4°C 96% 2.0 mph NE3.2 kmh NE 8.0 mph12.9 kmh 30.03 in1016.9 mb 0.00 in0.0 mm 0.00 in0.0 mm 0.00 in0.0 mm
02:28 AM 32.3°F0.2°C 31.3°F-0.4°C 96% 2.0 mph NNE3.2 kmh NNE 8.0 mph12.9 kmh 30.03 in1016.9 mb 0.00 in0.0 mm 0.00 in0.0 mm 0.00 in0.0 mm
02:26 AM 32.3°F0.2°C 31.3°F-0.4°C 96% 2.0 mph NE3.2 kmh NE 8.0 mph12.9 kmh 30.03 in1016.9 mb 0.00 in0.0 mm 0.00 in0.0 mm 0.00 in0.0 mm
02:24 AM 32.3°F0.2°C 31.3°F-0.4°C 96% 1.0 mph NNE1.6 kmh NNE 6.0 mph9.7 kmh 30.03 in1016.9 mb 0.00 in0.0 mm 0.00 in0.0 mm 0.00 in0.0 mm
02:22 AM 32.3°F0.2°C 31.3°F-0.4°C 96% 1.0 mph NNE1.6 kmh NNE 6.0 mph9.7 kmh 30.04 in1017.3 mb 0.00 in0.0 mm 0.00 in0.0 mm 0.00 in0.0 mm
02:20 AM 32.3°F0.2°C 31.3°F-0.4°C 96% 2.0 mph NNE3.2 kmh NNE 6.0 mph9.7 kmh 30.04 in1017.3 mb 0.00 in0.0 mm 0.00 in0.0 mm 0.00 in0.0 mm
02:18 AM 32.4°F0.2°C 31.4°F-0.3°C 96% 1.0 mph NNE1.6 kmh NNE 5.0 mph8.0 kmh 30.04 in1017.3 mb 0.00 in0.0 mm 0.00 in0.0 mm 0.00 in0.0 mm
02:16 AM 32.3°F0.2°C 31.3°F-0.4°C 96% 1.0 mph N1.6 kmh N 5.0 mph8.0 kmh 30.04 in1017.3 mb 0.00 in0.0 mm 0.00 in0.0 mm 0.00 in0.0 mm
02:14 AM 32.4°F0.2°C 31.4°F-0.3°C 96% 1.0 mph N1.6 kmh N 5.0 mph8.0 kmh 30.04 in1017.3 mb 0.00 in0.0 mm 0.00 in0.0 mm 0.00 in0.0 mm
02:12 AM 32.4°F0.2°C 31.4°F-0.3°C 96% 1.0 mph N1.6 kmh N 5.0 mph8.0 kmh 30.04 in1017.3 mb 0.00 in0.0 mm 0.00 in0.0 mm 0.00 in0.0 mm
02:10 AM 32.3°F0.2°C 31.3°F-0.4°C 96% 1.0 mph N1.6 kmh N 5.0 mph8.0 kmh 30.04 in1017.3 mb 0.00 in0.0 mm 0.00 in0.0 mm 0.00 in0.0 mm
02:08 AM 32.4°F0.2°C 31.6°F-0.2°C 97% 1.0 mph N1.6 kmh N 5.0 mph8.0 kmh 30.05 in1017.6 mb 0.00 in0.0 mm 0.00 in0.0 mm 0.00 in0.0 mm
02:06 AM 32.4°F0.2°C 31.6°F-0.2°C 97% Calm Calm 3.0 mph4.8 kmh 30.05 in1017.6 mb 0.00 in0.0 mm 0.00 in0.0 mm 0.00 in0.0 mm
02:04 AM 32.4°F0.2°C 31.6°F-0.2°C 97% 1.0 mph NNE1.6 kmh NNE 4.0 mph6.4 kmh 30.05 in1017.6 mb 0.00 in0.0 mm 0.00 in0.0 mm 0.00 in0.0 mm
02:02 AM 32.4°F0.2°C 31.6°F-0.2°C 97% 1.0 mph NNE1.6 kmh NNE 4.0 mph6.4 kmh 30.05 in1017.6 mb 0.00 in0.0 mm 0.00 in0.0 mm 0.00 in0.0 mm
02:00 AM 32.4°F0.2°C 31.6°F-0.2°C 97% 1.0 mph NNE1.6 kmh NNE 5.0 mph8.0 kmh 30.05 in1017.6 mb 0.00 in0.0 mm 0.00 in0.0 mm 0.00 in0.0 mm
01:58 AM 32.4°F0.2°C 31.6°F-0.2°C 97% 1.0 mph NNE1.6 kmh NNE 5.0 mph8.0 kmh 30.05 in1017.6 mb 0.00 in0.0 mm 0.00 in0.0 mm 0.00 in0.0 mm
01:56 AM 32.5°F0.3°C 31.7°F-0.2°C 97% 1.0 mph N1.6 kmh N 5.0 mph8.0 kmh 30.05 in1017.6 mb 0.00 in0.0 mm 0.00 in0.0 mm 0.00 in0.0 mm
01:54 AM 32.4°F0.2°C 31.6°F-0.2°C 97% 1.0 mph N1.6 kmh N 5.0 mph8.0 kmh 30.05 in1017.6 mb 0.00 in0.0 mm 0.00 in0.0 mm 0.00 in0.0 mm
01:52 AM 32.4°F0.2°C 31.6°F-0.2°C 97% 1.0 mph NNW1.6 kmh NNW 5.0 mph8.0 kmh 30.05 in1017.6 mb 0.00 in0.0 mm 0.00 in0.0 mm 0.00 in0.0 mm
01:50 AM 32.5°F0.3°C 31.7°F-0.2°C 97% 1.0 mph NW1.6 kmh NW 5.0 mph8.0 kmh 30.05 in1017.6 mb 0.00 in0.0 mm 0.00 in0.0 mm 0.00 in0.0 mm
01:48 AM 32.4°F0.2°C 31.6°F-0.2°C 97% 2.0 mph NNW3.2 kmh NNW 6.0 mph9.7 kmh 30.05 in1017.6 mb 0.00 in0.0 mm 0.00 in0.0 mm 0.00 in0.0 mm
01:46 AM 32.5°F0.3°C 31.7°F-0.2°C 97% 1.0 mph NNW1.6 kmh NNW 6.0 mph9.7 kmh 30.05 in1017.6 mb 0.00 in0.0 mm 0.00 in0.0 mm 0.00 in0.0 mm
01:44 AM 32.5°F0.3°C 31.7°F-0.2°C 97% 1.0 mph NNW1.6 kmh NNW 6.0 mph9.7 kmh 30.05 in1017.6 mb 0.00 in0.0 mm 0.00 in0.0 mm 0.00 in0.0 mm
01:42 AM 32.5°F0.3°C 31.7°F-0.2°C 97% 2.0 mph NNW3.2 kmh NNW 8.0 mph12.9 kmh 30.05 in1017.6 mb 0.00 in0.0 mm 0.00 in0.0 mm 0.00 in0.0 mm
01:40 AM 32.5°F0.3°C 31.7°F-0.2°C 97% 1.0 mph N1.6 kmh N 8.0 mph12.9 kmh 30.05 in1017.6 mb 0.00 in0.0 mm 0.00 in0.0 mm 0.00 in0.0 mm
01:38 AM 32.5°F0.3°C 31.7°F-0.2°C 97% 1.0 mph N1.6 kmh N 8.0 mph12.9 kmh 30.05 in1017.6 mb 0.00 in0.0 mm 0.00 in0.0 mm 0.00 in0.0 mm
01:36 AM 32.4°F0.2°C 31.6°F-0.2°C 97% 1.0 mph N1.6 kmh N 8.0 mph12.9 kmh 30.05 in1017.6 mb 0.00 in0.0 mm 0.00 in0.0 mm 0.00 in0.0 mm
01:34 AM 32.4°F0.2°C 31.6°F-0.2°C 97% 1.0 mph NNE1.6 kmh NNE 8.0 mph12.9 kmh 30.05 in1017.6 mb 0.00 in0.0 mm 0.00 in0.0 mm 0.00 in0.0 mm
01:32 AM 32.4°F0.2°C 31.6°F-0.2°C 97% 1.0 mph NE1.6 kmh NE 4.0 mph6.4 kmh 30.05 in1017.6 mb 0.00 in0.0 mm 0.00 in0.0 mm 0.00 in0.0 mm
01:30 AM 32.5°F0.3°C 31.7°F-0.2°C 97% 1.0 mph ENE1.6 kmh ENE 4.0 mph6.4 kmh 30.05 in1017.6 mb 0.00 in0.0 mm 0.00 in0.0 mm 0.00 in0.0 mm
01:28 AM 32.4°F0.2°C 31.6°F-0.2°C 97% 1.0 mph ENE1.6 kmh ENE 4.0 mph6.4 kmh 30.05 in1017.6 mb 0.00 in0.0 mm 0.00 in0.0 mm 0.00 in0.0 mm
01:26 AM 32.5°F0.3°C 31.7°F-0.2°C 97% 1.0 mph E1.6 kmh E 4.0 mph6.4 kmh 30.05 in1017.6 mb 0.00 in0.0 mm 0.00 in0.0 mm 0.00 in0.0 mm
01:24 AM 32.4°F0.2°C 31.6°F-0.2°C 97% 1.0 mph E1.6 kmh E 3.0 mph4.8 kmh 30.05 in1017.6 mb 0.00 in0.0 mm 0.00 in0.0 mm 0.00 in0.0 mm
01:22 AM 32.4°F0.2°C 31.6°F-0.2°C 97% 1.0 mph E1.6 kmh E 4.0 mph6.4 kmh 30.05 in1017.6 mb 0.00 in0.0 mm 0.00 in0.0 mm 0.00 in0.0 mm
01:20 AM 32.5°F0.3°C 31.7°F-0.2°C 97% 1.0 mph ENE1.6 kmh ENE 4.0 mph6.4 kmh 30.05 in1017.6 mb 0.00 in0.0 mm 0.00 in0.0 mm 0.00 in0.0 mm
01:18 AM 32.4°F0.2°C 31.6°F-0.2°C 97% 1.0 mph N1.6 kmh N 4.0 mph6.4 kmh 30.05 in1017.6 mb 0.00 in0.0 mm 0.00 in0.0 mm 0.00 in0.0 mm
01:16 AM 32.5°F0.3°C 31.7°F-0.2°C 97% 1.0 mph NW1.6 kmh NW 4.0 mph6.4 kmh 30.05 in1017.6 mb 0.00 in0.0 mm 0.00 in0.0 mm 0.00 in0.0 mm
01:14 AM 32.4°F0.2°C 31.9°F-0.1°C 98% 1.0 mph NNW1.6 kmh NNW 4.0 mph6.4 kmh 30.05 in1017.6 mb 0.00 in0.0 mm 0.00 in0.0 mm 0.00 in0.0 mm
01:12 AM 32.4°F0.2°C 31.6°F-0.2°C 97% 1.0 mph NNW1.6 kmh NNW 4.0 mph6.4 kmh 30.05 in1017.6 mb 0.00 in0.0 mm 0.00 in0.0 mm 0.00 in0.0 mm
01:10 AM 32.5°F0.3°C 31.7°F-0.2°C 97% 1.0 mph N1.6 kmh N 4.0 mph6.4 kmh 30.05 in1017.6 mb 0.00 in0.0 mm 0.00 in0.0 mm 0.00 in0.0 mm
01:08 AM 32.5°F0.3°C 31.7°F-0.2°C 97% 2.0 mph NE3.2 kmh NE 7.0 mph11.3 kmh 30.05 in1017.6 mb 0.00 in0.0 mm 0.00 in0.0 mm 0.00 in0.0 mm
01:06 AM 32.4°F0.2°C 31.6°F-0.2°C 97% 2.0 mph NE3.2 kmh NE 7.0 mph11.3 kmh 30.05 in1017.6 mb 0.00 in0.0 mm 0.00 in0.0 mm 0.00 in0.0 mm
01:04 AM 32.4°F0.2°C 31.6°F-0.2°C 97% 2.0 mph NE3.2 kmh NE 7.0 mph11.3 kmh 30.05 in1017.6 mb 0.00 in0.0 mm 0.00 in0.0 mm 0.00 in0.0 mm
01:02 AM 32.4°F0.2°C 31.6°F-0.2°C 97% 2.0 mph NE3.2 kmh NE 8.0 mph12.9 kmh 30.04 in1017.3 mb 0.00 in0.0 mm 0.00 in0.0 mm 0.00 in0.0 mm
01:00 AM 32.4°F0.2°C 31.9°F-0.1°C 98% 2.0 mph NNE3.2 kmh NNE 8.0 mph12.9 kmh 30.04 in1017.3 mb 0.00 in0.0 mm 0.00 in0.0 mm 0.00 in0.0 mm
12:58 AM 32.4°F0.2°C 31.9°F-0.1°C 98% 2.0 mph N3.2 kmh N 8.0 mph12.9 kmh 30.04 in1017.3 mb 0.00 in0.0 mm 0.00 in0.0 mm 0.00 in0.0 mm
12:56 AM 32.4°F0.2°C 31.9°F-0.1°C 98% 2.0 mph N3.2 kmh N 8.0 mph12.9 kmh 30.04 in1017.3 mb 0.00 in0.0 mm 0.00 in0.0 mm 0.00 in0.0 mm
12:54 AM 32.5°F0.3°C 32.0°F0.0°C 98% 2.0 mph N3.2 kmh N 8.0 mph12.9 kmh 30.04 in1017.3 mb 0.00 in0.0 mm 0.00 in0.0 mm 0.00 in0.0 mm
12:52 AM 32.4°F0.2°C 31.9°F-0.1°C 98% 2.0 mph N3.2 kmh N 4.0 mph6.4 kmh 30.05 in1017.6 mb 0.00 in0.0 mm 0.00 in0.0 mm 0.00 in0.0 mm
12:50 AM 32.4°F0.2°C 31.9°F-0.1°C 98% 2.0 mph N3.2 kmh N 4.0 mph6.4 kmh 30.05 in1017.6 mb 0.00 in0.0 mm 0.00 in0.0 mm 0.00 in0.0 mm
12:48 AM 32.4°F0.2°C 31.9°F-0.1°C 98% 1.0 mph N1.6 kmh N 4.0 mph6.4 kmh 30.05 in1017.6 mb 0.00 in0.0 mm 0.00 in0.0 mm 0.00 in0.0 mm
12:46 AM 32.4°F0.2°C 31.9°F-0.1°C 98% 1.0 mph N1.6 kmh N 4.0 mph6.4 kmh 30.05 in1017.6 mb 0.00 in0.0 mm 0.00 in0.0 mm 0.00 in0.0 mm
12:44 AM 32.4°F0.2°C 31.9°F-0.1°C 98% 1.0 mph N1.6 kmh N 4.0 mph6.4 kmh 30.05 in1017.6 mb 0.00 in0.0 mm 0.00 in0.0 mm 0.00 in0.0 mm
12:42 AM 32.4°F0.2°C 31.9°F-0.1°C 98% 1.0 mph N1.6 kmh N 3.0 mph4.8 kmh 30.05 in1017.6 mb 0.00 in0.0 mm 0.00 in0.0 mm 0.00 in0.0 mm
12:40 AM 32.4°F0.2°C 31.9°F-0.1°C 98% 1.0 mph NNE1.6 kmh NNE 3.0 mph4.8 kmh 30.04 in1017.3 mb 0.00 in0.0 mm 0.00 in0.0 mm 0.00 in0.0 mm
12:38 AM 32.4°F0.2°C 31.9°F-0.1°C 98% 1.0 mph NNE1.6 kmh NNE 4.0 mph6.4 kmh 30.05 in1017.6 mb 0.00 in0.0 mm 0.00 in0.0 mm 0.00 in0.0 mm
12:36 AM 32.4°F0.2°C 31.9°F-0.1°C 98% 1.0 mph NNE1.6 kmh NNE 4.0 mph6.4 kmh 30.05 in1017.6 mb 0.00 in0.0 mm 0.00 in0.0 mm 0.00 in0.0 mm
12:34 AM 32.5°F0.3°C 32.0°F0.0°C 98% 1.0 mph NNE1.6 kmh NNE 4.0 mph6.4 kmh 30.05 in1017.6 mb 0.00 in0.0 mm 0.00 in0.0 mm 0.00 in0.0 mm
12:32 AM 32.5°F0.3°C 32.0°F0.0°C 98% 1.0 mph N1.6 kmh N 4.0 mph6.4 kmh 30.05 in1017.6 mb 0.00 in0.0 mm 0.00 in0.0 mm 0.00 in0.0 mm
12:30 AM 32.5°F0.3°C 32.0°F0.0°C 98% 1.0 mph N1.6 kmh N 4.0 mph6.4 kmh 30.04 in1017.3 mb 0.00 in0.0 mm 0.00 in0.0 mm 0.00 in0.0 mm
12:28 AM 32.5°F0.3°C 32.0°F0.0°C 98% 1.0 mph N1.6 kmh N 4.0 mph6.4 kmh 30.05 in1017.6 mb 0.00 in0.0 mm 0.00 in0.0 mm 0.00 in0.0 mm
12:26 AM 32.5°F0.3°C 32.0°F0.0°C 98% 1.0 mph N1.6 kmh N 6.0 mph9.7 kmh 30.05 in1017.6 mb 0.00 in0.0 mm 0.00 in0.0 mm 0.00 in0.0 mm
12:24 AM 32.5°F0.3°C 32.0°F0.0°C 98% 1.0 mph N1.6 kmh N 6.0 mph9.7 kmh 30.05 in1017.6 mb 0.00 in0.0 mm 0.00 in0.0 mm 0.00 in0.0 mm
12:22 AM 32.5°F0.3°C 32.0°F0.0°C 98% 1.0 mph N1.6 kmh N 6.0 mph9.7 kmh 30.05 in1017.6 mb 0.00 in0.0 mm 0.00 in0.0 mm 0.00 in0.0 mm
12:20 AM 32.5°F0.3°C 32.0°F0.0°C 98% 1.0 mph N1.6 kmh N 6.0 mph9.7 kmh 30.05 in1017.6 mb 0.00 in0.0 mm 0.00 in0.0 mm 0.00 in0.0 mm
12:18 AM 32.5°F0.3°C 32.0°F0.0°C 98% 1.0 mph N1.6 kmh N 6.0 mph9.7 kmh 30.05 in1017.6 mb 0.00 in0.0 mm 0.00 in0.0 mm 0.00 in0.0 mm
12:16 AM 32.5°F0.3°C 32.0°F0.0°C 98% 1.0 mph N1.6 kmh N 3.0 mph4.8 kmh 30.05 in1017.6 mb 0.00 in0.0 mm 0.00 in0.0 mm 0.00 in0.0 mm
12:14 AM 32.5°F0.3°C 32.0°F0.0°C 98% 1.0 mph N1.6 kmh N 6.0 mph9.7 kmh 30.05 in1017.6 mb 0.00 in0.0 mm 0.00 in0.0 mm 0.00 in0.0 mm
12:12 AM 32.5°F0.3°C 32.0°F0.0°C 98% 1.0 mph N1.6 kmh N 6.0 mph9.7 kmh 30.05 in1017.6 mb 0.00 in0.0 mm 0.00 in0.0 mm 0.00 in0.0 mm
12:10 AM 32.5°F0.3°C 32.0°F0.0°C 98% 1.0 mph N1.6 kmh N 6.0 mph9.7 kmh 30.05 in1017.6 mb 0.00 in0.0 mm 0.00 in0.0 mm 0.00 in0.0 mm
12:08 AM 32.5°F0.3°C 32.0°F0.0°C 98% 1.0 mph N1.6 kmh N 6.0 mph9.7 kmh 30.05 in1017.6 mb 0.00 in0.0 mm 0.00 in0.0 mm 0.00 in0.0 mm
12:06 AM 32.5°F0.3°C 32.0°F0.0°C 98% 1.0 mph N1.6 kmh N 6.0 mph9.7 kmh 30.05 in1017.6 mb 0.00 in0.0 mm 0.00 in0.0 mm 0.00 in0.0 mm
12:04 AM 32.5°F0.3°C 32.0°F0.0°C 98% 1.0 mph NNW1.6 kmh NNW 3.0 mph4.8 kmh 30.05 in1017.6 mb 0.00 in0.0 mm 0.00 in0.0 mm 0.00 in0.0 mm
12:02 AM 32.6°F0.3°C 32.1°F0.1°C 98% 1.0 mph NNW1.6 kmh NNW 3.0 mph4.8 kmh 30.05 in1017.6 mb 0.00 in0.0 mm 0.00 in0.0 mm 0.00 in0.0 mm
12:00 AM 32.5°F0.3°C 32.0°F0.0°C 98% 1.0 mph N1.6 kmh N 7.0 mph11.3 kmh 30.05 in1017.6 mb 0.00 in0.0 mm 0.00 in0.0 mm 0.00 in0.0 mm